Forside
METAR-TAF:

METAR-TAF

Lufthavne :

Fort-de-France, Martinique

Breddekreds: 14-36N, længdekreds: 061-00W, højde: 5 m

Aktuelle vejr

Denne rapport blev lavet for 16 minutter siden, kl. 04:00 UTC
Vind 8 kt fra øst
Temperatur 26°C
Fugtighed 79%
Tryk 1014 hPa
Sigt 10 km eller mere
Nogle få skyer i en højde af 2800 ft

METAR: TFFF 160400Z AUTO 10008KT 9999 FEW028 26/22 Q1014 NOSIG

Tid: 00:16 (04:16 UTC)

Vejrudsigter

Denne rapport blev lavet for 5 timer og 16 minutter siden, kl. 23:00 UTC
Foreløbig gælder fra 16 på 00 UTC til 16 på 24 UTC
Vind 10 kt fra øst
Sigt 10 km eller mere
Spredte skyer i en højde af 2500 ft
Midlertidig
fra 16 på 13 UTC til 16 på 20 UTC
Vind 15 kt fra øst med vindstød på up til 25 kt

TAF: TFFF 152300Z 1600/1624 10010KT 9999 SCT025 TEMPO 1613/1620 10015G25KT

Vejrobservationer og prognoser fra mere end 4000 lufthavne (METAR og TAF).

De gule og røde prikker repræsenterer de meteorologiske stationer.

Flyt musen over at se navnet på stationen.

Så klik over at se vejr observationer og prognoser.

At skifte det kort: Klik på de grønne knapper med et sort kors for at zoome ind; på den grønne knap med en bindestreg for at zoome ud; eller på de grønne pile for tilstødende kort.


METAR-TAF: